createdAt,value
2022-11-29T00:01:14.720Z,27.65
2022-11-29T00:03:41.291Z,28.48
2022-11-29T00:06:12.049Z,25.67
2022-11-29T00:08:39.376Z,28.70
2022-11-29T00:11:36.192Z,27.73
2022-11-29T00:14:02.883Z,26.50
2022-11-29T00:16:29.897Z,29.77
2022-11-29T00:18:56.411Z,26.00
2022-11-29T00:21:22.978Z,30.42
2022-11-29T00:23:49.486Z,30.77
2022-11-29T00:26:15.990Z,31.23
2022-11-29T00:28:42.468Z,29.17
2022-11-29T00:31:17.748Z,30.58
2022-11-29T00:33:44.709Z,32.45
2022-11-29T00:36:12.259Z,29.65
2022-11-29T00:38:39.383Z,34.00
2022-11-29T00:41:06.531Z,31.70
2022-11-29T00:43:33.295Z,30.98
2022-11-29T00:45:59.912Z,31.20
2022-11-29T00:48:26.454Z,31.83
2022-11-29T00:50:53.049Z,33.67
2022-11-29T00:53:19.599Z,34.00
2022-11-29T00:55:50.752Z,36.15
2022-11-29T00:58:18.315Z,31.90
2022-11-29T01:00:45.136Z,35.50
2022-11-29T01:03:11.955Z,33.28
2022-11-29T01:05:38.447Z,38.15
2022-11-29T01:08:05.151Z,35.20
2022-11-29T01:10:31.784Z,34.10
2022-11-29T01:12:58.337Z,36.78
2022-11-29T01:15:25.016Z,38.60
2022-11-29T01:17:51.526Z,38.38
2022-11-29T01:20:18.270Z,43.00
2022-11-29T01:22:45.180Z,41.22
2022-11-29T01:25:12.702Z,38.10
2022-11-29T01:27:39.948Z,39.53
2022-11-29T01:30:08.855Z,41.92
2022-11-29T01:32:36.102Z,40.00
2022-11-29T01:35:03.084Z,42.67
2022-11-29T01:37:29.692Z,44.13
2022-11-29T01:39:56.261Z,44.28
2022-11-29T01:42:23.009Z,43.85
2022-11-29T01:44:49.407Z,47.80
2022-11-29T01:47:18.248Z,45.15
2022-11-29T01:49:49.047Z,44.20
2022-11-29T01:52:29.587Z,44.08
2022-11-29T01:55:00.405Z,47.92
2022-11-29T01:57:27.668Z,49.70
2022-11-29T02:00:00.581Z,47.10
2022-11-29T02:02:36.627Z,45.53
2022-11-29T02:05:04.185Z,46.75
2022-11-29T02:07:31.456Z,48.17
2022-11-29T02:09:58.175Z,48.80
2022-11-29T02:13:14.565Z,45.97
2022-11-29T02:15:59.917Z,52.88
2022-11-29T02:18:51.217Z,50.50
2022-11-29T02:21:46.834Z,48.20
2022-11-29T02:24:31.916Z,47.80
2022-11-29T02:27:16.662Z,47.60
2022-11-29T02:30:13.840Z,50.42
2022-11-29T02:32:46.380Z,51.78
2022-11-29T02:35:39.253Z,51.92
2022-11-29T02:38:40.974Z,51.45
2022-11-29T02:41:17.597Z,49.70
2022-11-29T02:44:17.576Z,49.83
2022-11-29T02:46:51.261Z,49.83
2022-11-29T02:49:38.962Z,55.13
2022-11-29T02:52:13.070Z,51.40
2022-11-29T03:00:05.052Z,55.72
2022-11-29T03:02:52.508Z,52.17
2022-11-29T03:05:32.270Z,50.58
2022-11-29T03:08:11.224Z,55.15
2022-11-29T03:11:06.952Z,55.20
2022-11-29T03:13:58.121Z,53.70
2022-11-29T03:16:43.761Z,57.58
2022-11-29T03:19:41.807Z,53.88
2022-11-29T03:24:52.376Z,56.97
2022-11-29T03:27:38.369Z,54.83
2022-11-29T03:30:10.866Z,53.53
2022-11-29T03:32:53.932Z,53.65
2022-11-29T03:35:48.144Z,53.80
2022-11-29T03:38:39.958Z,54.33
2022-11-29T03:41:18.831Z,57.45
2022-11-29T03:43:51.385Z,58.67
2022-11-29T03:46:42.252Z,53.13
2022-11-29T03:49:39.928Z,59.58
2022-11-29T03:52:21.799Z,59.60
2022-11-29T03:55:11.325Z,56.60
2022-11-29T03:57:50.180Z,54.40
2022-11-29T04:00:18.580Z,55.33
2022-11-29T04:03:11.450Z,56.45
2022-11-29T04:05:50.105Z,53.25
2022-11-29T04:08:39.115Z,58.40
2022-11-29T04:11:37.193Z,58.35
2022-11-29T04:14:25.010Z,57.72
2022-11-29T04:17:17.234Z,52.10
2022-11-29T04:19:56.482Z,54.78
2022-11-29T04:22:50.813Z,59.47
2022-11-29T04:25:29.302Z,57.75
2022-11-29T04:28:17.307Z,59.25
2022-11-29T04:31:06.875Z,55.03
2022-11-29T04:33:57.136Z,53.97
2022-11-29T04:36:41.661Z,60.92
2022-11-29T04:39:11.195Z,58.85
2022-11-29T04:41:59.813Z,57.47
2022-11-29T04:44:48.575Z,57.83
2022-11-29T04:47:45.990Z,56.60
2022-11-29T04:50:31.357Z,58.90
2022-11-29T04:53:40.859Z,61.63
2022-11-29T04:56:19.380Z,62.00
2022-11-29T04:59:04.655Z,63.30
2022-11-29T05:02:19.115Z,58.65
2022-11-29T05:05:18.127Z,59.05
2022-11-29T05:07:50.470Z,63.53
2022-11-29T05:10:33.825Z,59.25
2022-11-29T05:13:26.772Z,60.58
2022-11-29T05:16:15.778Z,56.88
2022-11-29T05:19:10.857Z,59.65
2022-11-29T05:21:52.724Z,65.03
2022-11-29T05:24:38.052Z,60.55
2022-11-29T05:27:28.257Z,63.20
2022-11-29T05:30:05.772Z,62.58
2022-11-29T05:32:48.642Z,67.03
2022-11-29T05:35:41.729Z,69.72
2022-11-29T05:38:33.152Z,64.88
2022-11-29T05:41:12.595Z,59.90
2022-11-29T05:43:54.154Z,61.90
2022-11-29T05:46:49.909Z,66.13
2022-11-29T05:49:38.118Z,64.75
2022-11-29T05:52:20.459Z,64.10
2022-11-29T05:55:19.323Z,60.28
2022-11-29T05:58:01.594Z,66.95
2022-11-29T06:00:38.817Z,65.28
2022-11-29T06:03:34.628Z,70.40
2022-11-29T06:06:19.456Z,65.88
2022-11-29T06:08:55.443Z,61.95
2022-11-29T06:11:30.796Z,61.08
2022-11-29T06:14:34.220Z,66.50
2022-11-29T06:17:38.837Z,61.38
2022-11-29T06:23:04.217Z,65.80
2022-11-29T06:26:04.051Z,63.92
2022-11-29T06:28:57.471Z,62.65
2022-11-29T06:31:39.639Z,60.60
2022-11-29T06:34:23.142Z,60.97
2022-11-29T06:37:04.113Z,65.88
2022-11-29T06:39:30.961Z,71.15
2022-11-29T06:41:57.485Z,69.75
2022-11-29T06:44:24.271Z,64.90
2022-11-29T06:47:09.211Z,68.97
2022-11-29T06:49:46.802Z,66.35
2022-11-29T06:52:44.313Z,61.47
2022-11-29T06:55:17.070Z,70.60
2022-11-29T06:58:21.962Z,67.20
2022-11-29T07:01:08.485Z,66.28
2022-11-29T07:03:50.231Z,70.72
2022-11-29T07:06:25.881Z,67.55
2022-11-29T07:09:00.685Z,69.05
2022-11-29T07:11:28.013Z,70.82
2022-11-29T07:13:55.070Z,68.40
2022-11-29T07:17:06.296Z,69.25
2022-11-29T07:19:37.700Z,70.93
2022-11-29T07:22:31.613Z,62.28
2022-11-29T07:25:06.662Z,66.75
2022-11-29T07:27:41.283Z,64.72
2022-11-29T07:30:16.909Z,63.85
2022-11-29T07:33:43.994Z,65.78
2022-11-29T07:36:30.256Z,63.17
2022-11-29T07:39:25.072Z,64.25
2022-11-29T07:42:20.744Z,71.97
2022-11-29T07:45:09.660Z,65.25
2022-11-29T07:47:36.401Z,66.40
2022-11-29T07:50:03.931Z,67.32
2022-11-29T07:52:30.445Z,71.85
2022-11-29T07:54:57.008Z,67.70
2022-11-29T07:57:23.543Z,72.28
2022-11-29T07:59:50.104Z,65.20
2022-11-29T08:02:26.852Z,65.63
2022-11-29T08:04:53.476Z,69.20
2022-11-29T08:07:19.998Z,68.47
2022-11-29T08:09:46.966Z,73.78
2022-11-29T08:12:13.601Z,68.70
2022-11-29T08:14:40.382Z,68.13
2022-11-29T08:17:06.954Z,72.07
2022-11-29T08:19:33.769Z,63.92
2022-11-29T08:22:00.322Z,68.38
2022-11-29T08:24:26.905Z,65.00
2022-11-29T08:26:53.424Z,67.03
2022-11-29T08:29:20.259Z,70.13
2022-11-29T08:31:53.255Z,71.20
2022-11-29T08:34:21.183Z,66.93
2022-11-29T08:36:47.783Z,64.72
2022-11-29T08:39:14.325Z,72.47
2022-11-29T08:41:40.852Z,67.55
2022-11-29T08:44:07.835Z,69.65
2022-11-29T08:46:52.936Z,71.53
2022-11-29T08:49:19.439Z,66.63
2022-11-29T08:51:45.982Z,67.82
2022-11-29T08:54:12.529Z,72.38
2022-11-29T08:59:25.599Z,73.85
2022-11-29T09:01:52.225Z,66.53
2022-11-29T09:04:18.963Z,68.47
2022-11-29T09:06:45.481Z,78.45
2022-11-29T09:09:11.977Z,72.90
2022-11-29T09:11:38.499Z,78.60
2022-11-29T09:14:07.695Z,72.07
2022-11-29T09:16:36.527Z,68.85
2022-11-29T09:19:05.557Z,70.93
2022-11-29T09:21:34.843Z,69.93
2022-11-29T09:24:05.500Z,70.32
2022-11-29T09:26:34.742Z,69.32
2022-11-29T09:29:04.062Z,74.93
2022-11-29T09:31:32.583Z,67.00
2022-11-29T09:33:59.491Z,70.32
2022-11-29T09:36:29.177Z,69.97
2022-11-29T09:38:57.161Z,66.88
2022-11-29T09:41:40.294Z,70.45
2022-11-29T09:44:22.325Z,64.05
2022-11-29T09:47:19.716Z,68.00
2022-11-29T09:50:01.092Z,62.47
2022-11-29T09:52:58.147Z,73.47
2022-11-29T09:55:51.677Z,70.70
2022-11-29T09:58:23.084Z,63.13
2022-11-29T10:00:56.365Z,69.38
2022-11-29T10:03:27.822Z,69.35
2022-11-29T10:06:11.815Z,67.57
2022-11-29T10:08:45.588Z,61.00
2022-11-29T10:11:20.231Z,64.78
2022-11-29T10:13:52.142Z,68.88
2022-11-29T10:16:39.055Z,64.20
2022-11-29T10:19:26.494Z,66.07
2022-11-29T10:22:03.912Z,68.50
2022-11-29T10:24:32.888Z,64.43
2022-11-29T10:27:00.187Z,62.17
2022-11-29T10:29:26.953Z,66.40
2022-11-29T10:31:56.757Z,58.60
2022-11-29T10:34:26.018Z,63.85
2022-11-29T10:37:02.732Z,59.17
2022-11-29T10:39:33.588Z,59.63
2022-11-29T10:42:02.530Z,64.43
2022-11-29T10:44:31.873Z,64.15
2022-11-29T10:47:01.024Z,59.78
2022-11-29T10:49:30.654Z,61.92
2022-11-29T10:51:57.272Z,61.15
2022-11-29T10:54:34.745Z,64.63
2022-11-29T10:57:01.911Z,62.85
2022-11-29T10:59:30.633Z,63.13
2022-11-29T11:01:57.774Z,64.15
2022-11-29T11:04:27.239Z,59.88
2022-11-29T11:06:56.980Z,62.33
2022-11-29T11:09:48.745Z,67.93
2022-11-29T11:12:15.221Z,64.57
2022-11-29T11:14:43.182Z,66.13
2022-11-29T11:17:27.167Z,63.35
2022-11-29T11:19:54.794Z,65.78
2022-11-29T11:22:23.571Z,60.60
2022-11-29T11:24:58.959Z,65.85
2022-11-29T11:27:40.010Z,62.97
2022-11-29T11:30:18.756Z,61.88
2022-11-29T11:33:07.797Z,65.85
2022-11-29T11:35:34.769Z,61.67
2022-11-29T11:38:01.280Z,66.38
2022-11-29T11:40:30.385Z,61.40
2022-11-29T11:43:01.114Z,62.38
2022-11-29T11:45:33.680Z,63.60
2022-11-29T11:48:05.129Z,62.65
2022-11-29T11:50:35.998Z,65.13
2022-11-29T11:53:06.991Z,63.45
2022-11-29T11:55:42.952Z,62.10
2022-11-29T11:58:12.432Z,65.50
2022-11-29T12:03:30.256Z,66.22
2022-11-29T12:06:20.112Z,64.63
2022-11-29T12:08:48.779Z,65.05
2022-11-29T12:11:18.252Z,66.20
2022-11-29T12:13:56.464Z,63.33
2022-11-29T12:16:30.111Z,67.25
2022-11-29T12:19:02.933Z,66.22
2022-11-29T12:21:38.111Z,67.22
2022-11-29T12:24:21.735Z,66.53
2022-11-29T12:26:57.053Z,65.03
2022-11-29T12:29:27.520Z,66.28
2022-11-29T12:32:27.244Z,66.88
2022-11-29T12:35:32.206Z,65.43
2022-11-29T12:38:24.900Z,67.20
2022-11-29T12:41:09.707Z,66.68
2022-11-29T12:44:15.550Z,69.28
2022-11-29T12:47:02.138Z,65.63
2022-11-29T12:50:07.318Z,66.05
2022-11-29T12:52:49.135Z,65.78
2022-11-29T12:55:26.457Z,67.55
2022-11-29T12:58:17.419Z,67.90
2022-11-29T13:01:05.244Z,69.30
2022-11-29T13:03:58.855Z,70.38
2022-11-29T13:06:38.708Z,69.38
2022-11-29T13:09:23.680Z,70.15
2022-11-29T13:12:01.861Z,73.32
2022-11-29T13:14:55.922Z,64.03
2022-11-29T13:17:48.273Z,65.53
2022-11-29T13:20:20.782Z,68.40
2022-11-29T13:23:03.483Z,71.15
2022-11-29T13:25:39.688Z,68.70
2022-11-29T13:28:16.369Z,74.35
2022-11-29T13:30:42.986Z,70.45
2022-11-29T13:33:19.935Z,72.60
2022-11-29T13:36:13.640Z,74.68
2022-11-29T13:38:48.611Z,70.33
2022-11-29T13:41:28.837Z,69.82
2022-11-29T13:44:04.374Z,77.65
2022-11-29T13:47:01.542Z,69.80
2022-11-29T13:49:53.207Z,73.13
2022-11-29T13:52:35.455Z,73.05
2022-11-29T13:55:11.734Z,68.22
2022-11-29T13:58:14.931Z,73.57
2022-11-29T14:00:42.575Z,74.80
2022-11-29T14:03:21.573Z,76.60
2022-11-29T14:05:53.339Z,77.03
2022-11-29T14:08:47.684Z,73.82
2022-11-29T14:11:20.603Z,70.88
2022-11-29T14:14:21.074Z,71.45
2022-11-29T14:16:52.106Z,71.50
2022-11-29T14:19:46.816Z,74.57
2022-11-29T14:22:18.778Z,74.88
2022-11-29T14:24:58.087Z,71.75
2022-11-29T14:27:24.533Z,79.32
2022-11-29T14:29:52.593Z,76.57
2022-11-29T14:32:27.953Z,78.68
2022-11-29T14:35:02.979Z,78.07
2022-11-29T14:37:40.192Z,73.88
2022-11-29T14:40:50.399Z,78.07
2022-11-29T14:43:27.772Z,79.53
2022-11-29T14:46:15.444Z,73.40
2022-11-29T14:49:02.909Z,78.15
2022-11-29T14:51:32.604Z,78.57
2022-11-29T14:54:17.966Z,75.57
2022-11-29T14:56:46.582Z,79.68
2022-11-29T14:59:50.045Z,78.20
2022-11-29T15:02:35.527Z,75.93
2022-11-29T15:05:24.454Z,80.13
2022-11-29T15:08:08.438Z,78.28
2022-11-29T15:10:40.308Z,74.70
2022-11-29T15:13:12.126Z,81.22
2022-11-29T15:16:10.658Z,81.60
2022-11-29T15:19:34.189Z,75.32
2022-11-29T15:22:14.137Z,83.32
2022-11-29T15:24:53.649Z,78.95
2022-11-29T15:27:20.869Z,76.38
2022-11-29T15:29:54.712Z,75.28
2022-11-29T15:32:28.186Z,77.03
2022-11-29T15:34:56.334Z,77.97
2022-11-29T15:37:31.921Z,77.95
2022-11-29T15:40:16.933Z,76.57
2022-11-29T15:42:49.931Z,77.57
2022-11-29T15:45:27.464Z,75.20
2022-11-29T15:47:54.369Z,77.68
2022-11-29T15:50:32.709Z,77.90
2022-11-29T15:53:06.405Z,77.85
2022-11-29T15:55:33.597Z,76.07
2022-11-29T15:58:08.503Z,78.22
2022-11-29T16:00:36.270Z,76.13
2022-11-29T16:03:05.161Z,78.15
2022-11-29T16:05:37.165Z,77.85
2022-11-29T16:08:07.214Z,79.63
2022-11-29T16:11:00.480Z,77.53
2022-11-29T16:13:39.020Z,74.65
2022-11-29T16:16:15.010Z,82.50
2022-11-29T16:18:44.822Z,77.35
2022-11-29T16:21:32.014Z,73.88
2022-11-29T16:24:10.405Z,76.75
2022-11-29T16:26:43.948Z,79.07
2022-11-29T16:29:30.181Z,77.40
2022-11-29T16:31:57.354Z,76.53
2022-11-29T16:34:33.135Z,76.45
2022-11-29T16:37:01.329Z,82.30
2022-11-29T16:39:28.358Z,77.82
2022-11-29T16:42:18.314Z,78.50
2022-11-29T16:44:49.015Z,79.90
2022-11-29T16:47:18.719Z,77.53
2022-11-29T16:49:45.346Z,77.97
2022-11-29T16:52:27.057Z,80.72
2022-11-29T16:54:53.726Z,84.50
2022-11-29T16:57:20.776Z,79.75
2022-11-29T16:59:47.389Z,76.68
2022-11-29T17:02:15.123Z,73.40
2022-11-29T17:04:42.032Z,80.55
2022-11-29T17:07:16.875Z,83.90
2022-11-29T17:09:43.413Z,86.38
2022-11-29T17:12:13.604Z,84.85
2022-11-29T17:14:40.218Z,81.82
2022-11-29T17:17:06.923Z,84.00
2022-11-29T17:19:33.455Z,82.78
2022-11-29T17:22:00.025Z,79.95
2022-11-29T17:24:26.607Z,81.85
2022-11-29T17:26:54.832Z,79.53
2022-11-29T17:29:21.413Z,84.50
2022-11-29T17:31:50.466Z,87.35
2022-11-29T17:34:17.641Z,78.00
2022-11-29T17:36:45.133Z,78.97
2022-11-29T17:39:11.905Z,85.88
2022-11-29T17:41:38.398Z,86.00
2022-11-29T17:44:05.068Z,85.03
2022-11-29T17:46:34.286Z,87.22
2022-11-29T17:49:04.005Z,84.72
2022-11-29T17:54:17.677Z,83.43
2022-11-29T17:56:44.186Z,86.72
2022-11-29T17:59:10.772Z,82.10
2022-11-29T18:01:37.356Z,86.47
2022-11-29T18:04:05.905Z,83.45
2022-11-29T18:06:37.748Z,83.70
2022-11-29T18:09:06.581Z,84.97
2022-11-29T18:11:43.304Z,88.65
2022-11-29T18:14:15.770Z,89.40
2022-11-29T18:16:42.803Z,82.60
2022-11-29T18:19:12.419Z,82.88
2022-11-29T18:21:39.027Z,82.22
2022-11-29T18:24:07.044Z,87.10
2022-11-29T18:26:34.811Z,87.93
2022-11-29T18:29:01.687Z,80.95
2022-11-29T18:31:31.291Z,82.60
2022-11-29T18:34:00.159Z,80.57
2022-11-29T18:36:32.410Z,85.30
2022-11-29T18:39:01.443Z,85.38
2022-11-29T18:41:30.195Z,87.57
2022-11-29T18:44:02.239Z,88.68
2022-11-29T18:46:32.502Z,84.55
2022-11-29T18:49:00.963Z,91.53
2022-11-29T18:51:29.018Z,101.13
2022-11-29T18:53:57.411Z,85.30
2022-11-29T18:56:26.480Z,93.78
2022-11-29T18:59:01.410Z,89.22
2022-11-29T19:01:29.960Z,92.32
2022-11-29T19:03:59.362Z,92.40
2022-11-29T19:06:37.360Z,86.15
2022-11-29T19:09:06.764Z,88.78
2022-11-29T19:11:34.330Z,88.07
2022-11-29T19:14:03.931Z,87.32
2022-11-29T19:16:33.371Z,80.88
2022-11-29T19:19:01.375Z,87.88
2022-11-29T19:21:31.706Z,85.07
2022-11-29T19:24:03.699Z,82.40
2022-11-29T19:26:32.336Z,89.50
2022-11-29T19:29:00.182Z,85.32
2022-11-29T19:31:28.511Z,84.40
2022-11-29T19:33:56.041Z,78.70
2022-11-29T19:36:28.371Z,89.30
2022-11-29T19:38:55.506Z,88.72
2022-11-29T19:41:33.675Z,84.25
2022-11-29T19:44:02.921Z,82.05
2022-11-29T19:46:31.939Z,83.47
2022-11-29T19:48:59.785Z,84.60
2022-11-29T19:51:27.453Z,83.63
2022-11-29T19:53:55.732Z,79.53
2022-11-29T19:56:23.522Z,76.35
2022-11-29T19:58:50.698Z,86.25
2022-11-29T20:01:27.895Z,94.80
2022-11-29T20:03:58.571Z,91.75
2022-11-29T20:06:29.734Z,90.75
2022-11-29T20:08:57.017Z,98.03
2022-11-29T20:11:25.148Z,90.20
2022-11-29T20:13:57.667Z,84.70
2022-11-29T20:16:25.406Z,90.05
2022-11-29T20:18:53.222Z,81.47
2022-11-29T20:21:24.842Z,83.22
2022-11-29T20:23:59.765Z,90.72
2022-11-29T20:26:27.784Z,79.18
2022-11-29T20:28:54.609Z,80.22
2022-11-29T20:31:23.014Z,82.20
2022-11-29T20:33:52.203Z,77.90
2022-11-29T20:36:30.829Z,81.50
2022-11-29T20:39:07.375Z,84.22
2022-11-29T20:42:01.103Z,78.35
2022-11-29T20:44:38.596Z,73.77
2022-11-29T20:47:13.703Z,75.22
2022-11-29T20:49:40.585Z,71.05
2022-11-29T20:52:29.960Z,80.72
2022-11-29T20:54:56.536Z,79.90
2022-11-29T20:57:23.152Z,76.63
2022-11-29T20:59:49.728Z,76.00
2022-11-29T21:02:16.391Z,76.25
2022-11-29T21:04:42.865Z,78.22
2022-11-29T21:07:09.452Z,82.45
2022-11-29T21:09:35.972Z,81.85
2022-11-29T21:12:02.759Z,87.57
2022-11-29T21:14:29.561Z,83.88
2022-11-29T21:16:56.394Z,83.07
2022-11-29T21:19:25.590Z,78.05
2022-11-29T21:22:03.868Z,75.57
2022-11-29T21:24:45.983Z,75.85
2022-11-29T21:27:20.697Z,79.90
2022-11-29T21:29:47.351Z,79.55
2022-11-29T21:32:22.079Z,77.93
2022-11-29T21:34:49.181Z,79.18
2022-11-29T21:37:18.196Z,74.82
2022-11-29T21:39:44.740Z,72.35
2022-11-29T21:42:11.091Z,72.35
2022-11-29T21:44:37.552Z,70.47
2022-11-29T21:47:04.392Z,70.07
2022-11-29T21:49:31.071Z,71.55
2022-11-29T21:52:00.003Z,72.82
2022-11-29T21:54:27.281Z,75.20
2022-11-29T21:56:54.220Z,68.68
2022-11-29T21:59:21.227Z,68.60
2022-11-29T22:01:47.773Z,66.50
2022-11-29T22:04:14.240Z,66.97
2022-11-29T22:06:40.821Z,73.05
2022-11-29T22:09:08.076Z,71.22
2022-11-29T22:11:35.269Z,67.88
2022-11-29T22:14:13.528Z,68.13
2022-11-29T22:16:57.698Z,72.78
2022-11-29T22:19:29.361Z,71.55
2022-11-29T22:22:01.172Z,78.68
2022-11-29T22:24:33.126Z,73.43
2022-11-29T22:26:59.731Z,69.65
2022-11-29T22:29:26.133Z,76.40
2022-11-29T22:31:54.609Z,73.55
2022-11-29T22:34:22.084Z,74.05
2022-11-29T22:36:48.732Z,69.43
2022-11-29T22:39:15.120Z,72.57
2022-11-29T22:41:41.744Z,74.97
2022-11-29T22:44:08.285Z,75.45
2022-11-29T22:46:39.345Z,74.03
2022-11-29T22:49:05.812Z,72.78
2022-11-29T22:51:35.150Z,74.65
2022-11-29T22:54:04.027Z,70.20
2022-11-29T22:56:33.706Z,71.68
2022-11-29T22:59:00.184Z,71.15
2022-11-29T23:01:28.789Z,73.45
2022-11-29T23:04:01.081Z,72.15
2022-11-29T23:06:30.265Z,73.82
2022-11-29T23:08:59.464Z,77.25
2022-11-29T23:11:30.237Z,76.38
2022-11-29T23:13:57.140Z,75.20
2022-11-29T23:16:26.304Z,72.07
2022-11-29T23:18:54.466Z,73.65
2022-11-29T23:21:23.935Z,74.68
2022-11-29T23:23:56.074Z,70.20
2022-11-29T23:26:26.097Z,76.85
2022-11-29T23:28:53.334Z,72.82
2022-11-29T23:31:21.407Z,74.70
2022-11-29T23:33:47.876Z,68.70
2022-11-29T23:36:15.220Z,81.35
2022-11-29T23:38:42.248Z,77.57
2022-11-29T23:41:09.758Z,72.78
2022-11-29T23:43:37.844Z,73.20
2022-11-29T23:46:14.311Z,73.85
2022-11-29T23:48:40.929Z,76.10
2022-11-29T23:51:07.500Z,76.10
2022-11-29T23:53:34.109Z,72.18
2022-11-29T23:56:06.823Z,75.82
2022-11-29T23:58:34.455Z,78.53
